Detalii statie VESTAGRAR MARGHITA [00001D0E]

Toti senzorii

Date Temperatura solului [C]Precipitatii [mm]Voltaj baterie [mV]Leaf Wetness [Min]HC Air temperature [C]HC Relative humidity [%]Punctul de roua [C]
medieminmaxsumaultimatimpmedieminmaxmediemediemin
2018-12-09 15:00:00 0 7284 8.59 8.07 9.2 25 0
2018-12-09 16:00:00 0 7128 7.4 7.11 7.92 100 7.3 7.1
2018-12-09 17:00:00 0 7050 6.89 6.62 7.21 100 6.8 6.6
2018-12-09 18:00:00 0 7040 6.45 6.26 6.69 100 6.4 6.2
2018-12-09 19:00:00 0 7010 6.13 5.99 6.35 100 6 5.9
2018-12-09 20:00:00 0 7010 5.96 5.63 6.22 100 5.9 5.6
2018-12-09 21:00:00 0 7000 5.29 4.82 5.66 100 5.2 4.8
2018-12-09 22:00:00 0 6992 5.61 5.38 5.86 100 5.5 5.3
2018-12-09 23:00:00 0 6972 5.58 5.43 5.77 100 5.5 5.4
2018-12-10 00:00:00 0 6982 5.07 4.68 5.39 100 5 4.6
2018-12-10 01:00:00 0 6952 4.98 4.74 5.15 100 4.9 4.7
2018-12-10 02:00:00 0 6952 4.75 4.5 4.96 100 4.7 4.5
2018-12-10 03:00:00 0 6942 4.81 4.54 5.02 100 4.7 4.5
2018-12-10 04:00:00 0 6952 4.95 4.46 5.19 100 4.8 4.4
2018-12-10 05:00:00 0 6942 5.09 4.77 5.29 100 5 4.7
2018-12-10 06:00:00 0 6932 4.78 4.48 5 100 4.7 4.4
2018-12-10 07:00:00 0 6932 4.24 3.94 4.56 100 4.2 3.9
2018-12-10 08:00:00 0 6932 4.39 4.1 4.69 100 4.3 4.1
2018-12-10 09:00:00 0 6962 4.6 4.32 5.1 100 4.5 4.3
2018-12-10 10:00:00 0 7000 5.49 5.37 5.58 100 5.4 5.3
2018-12-10 11:00:00 0 6982 5.51 5.35 5.67 100 5.4 5.3
2018-12-10 12:00:00 0 6962 5.36 5.25 5.51 100 5.3 5.2
2018-12-10 13:00:00 0 6962 5.31 5.19 5.56 100 5.2 5.1
2018-12-10 14:00:00 0.6 6982 5.13 5.02 5.25 100 5 5
2018-12-10 15:00:00 0 7040 5.35 5.16 5.53 100 5.3 5.1
2018-12-10 16:00:00 0 7000 5.11 4.95 5.28 100 5 4.9
2018-12-10 17:00:00 0 6942 4.63 4.41 4.87 100 4.5 4.4
2018-12-10 18:00:00 0 6922 4.17 4 4.44 100 4.1 4
2018-12-10 19:00:00 0 6914 3.86 3.69 4.11 100 3.8 3.6
2018-12-10 20:00:00 0 6914 3.52 3.41 3.67 100 3.4 3.4
2018-12-10 21:00:00 0 6894 3.43 3.29 3.5 100 3.3 3.2
2018-12-10 22:00:00 0.2 6894 3.02 2.8 3.26 100 2.9 2.8
2018-12-10 23:00:00 0 6884 2.49 2.14 2.77 100 2.4 2.1
2018-12-11 00:00:00 0 6874 1.79 1.36 2.45 100 1.7 1.3
2018-12-11 01:00:00 0 6874 1.17 0.75 1.49 100 1.1 0.7
2018-12-11 02:00:00 0 6864 0.81 0.39 1.25 100 0.7 0.3
2018-12-11 03:00:00 0 6854 0.73 0.53 0.92 100 0.6 0.5
2018-12-11 04:00:00 0 6844 1.16 0.7 1.39 100 1.1 0.7
2018-12-11 05:00:00 0 6854 1.17 0.8 1.46 100 1.1 0.8
2018-12-11 06:00:00 0 6844 1.42 1.31 1.55 100 1.3 1.3
2018-12-11 07:00:00 0.4 6844 1.01 0.54 1.56 100 0.9 0.5